Portada
METAR-TAF:

METAR-TAF

Aeroports :

El Oued, Algèria

latitud: 33-30-47N, longitud: 006-46-57E, altitud: 62 m

Observació

L'informe es va fer fa 52 minuts, a les 11:00 UTC
Vent 3 kt del Est, variant entre Nord/Nord-Est i Sud/Sud-Est
Temperatura 35°C
Humitat 27%
Pressió 1018 hPa
Visibilitat 10 km o més
sense núvols per sota de 1500 mi sense presència de cumulonimbus.

METAR: DAUO 261100Z 08003KT 020V160 CAVOK 35/13 Q1018

Hora: 12:52 (11:52 UTC)

Pronòstic

L'informe es va fer fa 52 minuts, a les 11:00 UTC
Pronòstic vàlid del 26 a les 12 UTC al 26 a les 21 UTC
Vent 6 kt del Est/Nord-Est
Visibilitat 10 km o més
sense núvols per sota de 1500 mi sense presència de cumulonimbus.

TAF: DAUO 261100Z 2612/2621 06006KT CAVOK

Observacions i pronòstics meteorològics de més de 4000 aeroports (METAR i TAF).

Les estacions disponibles són els punts grocs i vermells al mapa.

Posi el ratolí al punt desitjat per veure el nom de l'estació.

Feu clic per veure les observacions i els pronòstics meteorològics.

Per canviar el mapa: feu clic els botons verds amb una creu de color negre per apropar; al botó verd amb un guió per allunyar la imatge; o en les fletxes verdes per a mapes adjacents.


METAR-TAF: